Terminal Aerodrome Forecast
Issued by NWS

Current Version | Previous Version | Text Only | Print | Product List | Glossary On
Versions: 1 2 3 4 5 6 7 8 9 10 11 12 13 14 15 16 17 18 19 20 21 22 23 24 25
789
FTUS42 KCAE 182050 AAA
TAFDNL
TAF AMD
KDNL 182050Z 1821/1918 23008KT P6SM VCSH SCT050
     FM190000 VRB03KT P6SM FEW100
     FM191500 29005KT P6SM FEW050=

USA.gov is the U.S. government's official web portal to all federal, state and local government web resources and services.